createdAt,value
2019-01-31T00:01:18.180Z,74.63
2019-01-31T00:04:55.965Z,74.56
2019-01-31T00:08:15.329Z,74.90
2019-01-31T00:11:28.461Z,74.63
2019-01-31T00:15:01.227Z,75.06
2019-01-31T00:18:38.950Z,74.96
2019-01-31T00:21:57.648Z,74.95
2019-01-31T00:24:39.890Z,75.02
2019-01-31T00:28:06.158Z,74.88
2019-01-31T00:31:28.782Z,74.88
2019-01-31T00:34:59.335Z,74.85
2019-01-31T00:38:56.286Z,75.26
2019-01-31T00:42:15.255Z,75.01
2019-01-31T00:45:29.325Z,75.00
2019-01-31T00:48:56.537Z,74.85
2019-01-31T00:52:18.728Z,75.20
2019-01-31T00:56:05.409Z,74.85
2019-01-31T00:59:42.362Z,75.08
2019-01-31T01:03:17.526Z,75.02
2019-01-31T01:07:04.224Z,75.12
2019-01-31T01:10:11.391Z,74.95
2019-01-31T01:13:47.832Z,75.08
2019-01-31T01:17:20.458Z,75.06
2019-01-31T01:21:02.422Z,75.08
2019-01-31T01:24:00.577Z,75.04
2019-01-31T01:27:13.477Z,75.26
2019-01-31T01:30:26.522Z,75.06
2019-01-31T01:34:25.229Z,75.13
2019-01-31T01:37:44.780Z,75.22
2019-01-31T01:41:24.705Z,75.07
2019-01-31T01:44:57.766Z,75.15
2019-01-31T01:48:27.265Z,75.05
2019-01-31T01:51:58.976Z,74.88
2019-01-31T01:55:08.675Z,75.04
2019-01-31T01:58:35.596Z,74.85
2019-01-31T02:01:40.758Z,74.89
2019-01-31T02:04:31.667Z,74.92
2019-01-31T02:07:31.866Z,74.85
2019-01-31T02:11:15.333Z,74.92
2019-01-31T02:14:53.651Z,74.87
2019-01-31T02:18:00.812Z,74.48
2019-01-31T02:21:26.969Z,74.67
2019-01-31T02:24:36.582Z,74.73
2019-01-31T02:28:07.470Z,74.45
2019-01-31T02:31:29.575Z,74.75
2019-01-31T02:35:03.332Z,74.72
2019-01-31T02:38:13.226Z,74.46
2019-01-31T02:41:26.385Z,74.40
2019-01-31T02:44:44.794Z,74.81
2019-01-31T02:47:56.212Z,74.88
2019-01-31T02:51:32.743Z,75.01
2019-01-31T02:54:57.487Z,75.06
2019-01-31T02:58:24.953Z,74.89
2019-01-31T03:01:52.614Z,74.90
2019-01-31T03:04:59.201Z,74.68
2019-01-31T03:08:37.800Z,74.96
2019-01-31T03:11:39.007Z,74.89
2019-01-31T03:14:22.448Z,75.10
2019-01-31T03:17:45.776Z,75.01
2019-01-31T03:21:02.702Z,75.06
2019-01-31T03:24:33.427Z,74.96
2019-01-31T03:27:50.046Z,74.84
2019-01-31T03:31:10.272Z,74.66
2019-01-31T03:35:05.035Z,75.19
2019-01-31T03:38:24.988Z,74.73
2019-01-31T03:41:51.378Z,74.82
2019-01-31T03:44:59.361Z,74.89
2019-01-31T03:48:20.282Z,74.99
2019-01-31T03:51:48.790Z,74.90
2019-01-31T03:55:07.193Z,74.53
2019-01-31T03:58:29.076Z,74.36
2019-01-31T04:02:00.931Z,74.84
2019-01-31T04:04:48.460Z,74.69
2019-01-31T04:07:19.946Z,74.91
2019-01-31T04:09:51.406Z,74.67
2019-01-31T04:12:22.890Z,74.78
2019-01-31T04:14:54.371Z,74.76
2019-01-31T04:17:25.832Z,74.69
2019-01-31T04:19:57.280Z,74.87
2019-01-31T04:22:31.944Z,74.66
2019-01-31T04:25:03.360Z,74.62
2019-01-31T04:27:34.843Z,74.37
2019-01-31T04:30:08.566Z,74.40
2019-01-31T04:32:41.022Z,74.35
2019-01-31T04:35:12.504Z,74.47
2019-01-31T04:37:43.955Z,74.27
2019-01-31T04:40:15.385Z,74.12
2019-01-31T04:42:47.006Z,73.98
2019-01-31T04:45:18.569Z,73.80
2019-01-31T04:47:50.135Z,74.04
2019-01-31T04:50:21.625Z,74.08
2019-01-31T04:52:53.074Z,74.03
2019-01-31T04:55:24.568Z,73.73
2019-01-31T04:57:56.003Z,73.53
2019-01-31T05:00:27.763Z,73.39
2019-01-31T05:02:59.283Z,73.55
2019-01-31T05:05:30.738Z,73.55
2019-01-31T05:08:02.230Z,73.54
2019-01-31T05:10:42.688Z,73.44
2019-01-31T05:13:06.993Z,73.34
2019-01-31T05:15:38.764Z,73.31
2019-01-31T05:18:10.236Z,73.18
2019-01-31T05:20:41.691Z,73.15
2019-01-31T05:23:13.260Z,73.25
2019-01-31T05:25:44.706Z,73.08
2019-01-31T05:28:16.211Z,73.11
2019-01-31T05:30:48.072Z,73.11
2019-01-31T05:33:19.755Z,73.04
2019-01-31T05:35:51.229Z,73.13
2019-01-31T05:38:22.678Z,73.00
2019-01-31T05:40:55.538Z,73.27
2019-01-31T05:43:27.473Z,73.17
2019-01-31T05:45:58.966Z,73.21
2019-01-31T05:48:30.431Z,73.23
2019-01-31T05:51:01.932Z,73.07
2019-01-31T05:53:33.374Z,73.01
2019-01-31T05:56:04.928Z,72.74
2019-01-31T05:58:36.452Z,72.70
2019-01-31T06:01:08.249Z,72.86
2019-01-31T06:03:39.965Z,72.77
2019-01-31T06:06:11.434Z,73.00
2019-01-31T06:08:42.976Z,72.77
2019-01-31T06:11:14.425Z,73.03
2019-01-31T06:13:45.892Z,73.16
2019-01-31T06:16:17.594Z,73.31
2019-01-31T06:18:49.162Z,73.02
2019-01-31T06:21:20.582Z,72.76
2019-01-31T06:23:52.071Z,72.84
2019-01-31T06:26:23.539Z,73.09
2019-01-31T06:28:54.980Z,73.07
2019-01-31T06:31:26.461Z,72.92
2019-01-31T06:33:57.946Z,72.89
2019-01-31T06:36:29.503Z,72.92
2019-01-31T06:39:01.130Z,72.97
2019-01-31T06:41:34.175Z,72.98
2019-01-31T06:44:05.723Z,72.87
2019-01-31T06:46:37.370Z,72.75
2019-01-31T06:49:08.882Z,72.83
2019-01-31T06:51:40.354Z,72.55
2019-01-31T06:54:11.954Z,72.88
2019-01-31T06:56:45.574Z,72.75
2019-01-31T06:59:17.072Z,72.88
2019-01-31T07:01:48.865Z,72.79
2019-01-31T07:04:20.684Z,72.63
2019-01-31T07:06:52.178Z,72.87
2019-01-31T07:09:23.615Z,72.75
2019-01-31T07:11:55.154Z,72.61
2019-01-31T07:14:26.668Z,73.09
2019-01-31T07:16:58.407Z,72.79
2019-01-31T07:19:29.849Z,72.64
2019-01-31T07:22:01.385Z,72.73
2019-01-31T07:24:32.898Z,72.59
2019-01-31T07:27:04.370Z,72.93
2019-01-31T07:29:36.184Z,72.83
2019-01-31T07:32:07.971Z,72.92
2019-01-31T07:34:39.399Z,72.88
2019-01-31T07:37:10.839Z,72.98
2019-01-31T07:39:42.291Z,73.15
2019-01-31T07:42:13.791Z,73.02
2019-01-31T07:44:49.946Z,73.25
2019-01-31T07:47:21.672Z,73.47
2019-01-31T07:49:53.105Z,73.53
2019-01-31T07:52:24.547Z,73.21
2019-01-31T07:54:56.082Z,73.21
2019-01-31T07:57:27.615Z,73.13
2019-01-31T07:59:59.090Z,73.28
2019-01-31T08:02:30.638Z,73.17
2019-01-31T08:05:05.244Z,73.05
2019-01-31T08:07:36.684Z,73.08
2019-01-31T08:10:13.224Z,73.01
2019-01-31T08:12:44.708Z,72.95
2019-01-31T08:15:17.647Z,72.82
2019-01-31T08:17:49.433Z,72.81
2019-01-31T08:20:20.988Z,72.82
2019-01-31T08:22:52.437Z,72.52
2019-01-31T08:25:23.964Z,72.47
2019-01-31T08:27:55.599Z,72.59
2019-01-31T08:30:30.721Z,72.57
2019-01-31T08:33:02.579Z,72.45
2019-01-31T08:35:34.107Z,72.52
2019-01-31T08:38:05.584Z,72.64
2019-01-31T08:40:37.090Z,72.60
2019-01-31T08:43:08.583Z,72.55
2019-01-31T08:45:40.107Z,72.49
2019-01-31T08:48:11.913Z,72.60
2019-01-31T08:50:43.476Z,72.44
2019-01-31T08:53:15.041Z,72.16
2019-01-31T08:55:47.581Z,72.19
2019-01-31T08:58:19.420Z,72.25
2019-01-31T09:00:50.954Z,72.02
2019-01-31T09:03:22.777Z,72.23
2019-01-31T09:05:54.534Z,72.15
2019-01-31T09:08:26.335Z,71.83
2019-01-31T09:10:57.988Z,72.12
2019-01-31T09:13:31.027Z,72.13
2019-01-31T09:16:02.549Z,71.99
2019-01-31T09:18:34.018Z,71.70
2019-01-31T09:21:35.810Z,72.00
2019-01-31T09:25:26.339Z,71.86
2019-01-31T09:28:31.267Z,71.54
2019-01-31T09:31:52.142Z,71.49
2019-01-31T09:35:08.204Z,71.08
2019-01-31T09:38:57.832Z,70.75
2019-01-31T09:42:07.184Z,70.62
2019-01-31T09:45:23.939Z,70.51
2019-01-31T09:48:24.810Z,70.68
2019-01-31T09:51:51.963Z,70.93
2019-01-31T09:55:06.986Z,71.10
2019-01-31T09:58:23.958Z,71.22
2019-01-31T10:01:54.270Z,71.41
2019-01-31T10:05:22.108Z,71.37
2019-01-31T10:08:30.049Z,70.97
2019-01-31T10:11:46.419Z,70.92
2019-01-31T10:15:04.124Z,70.69
2019-01-31T10:18:42.046Z,70.62
2019-01-31T10:22:02.638Z,70.26
2019-01-31T10:25:08.290Z,70.25
2019-01-31T10:28:29.944Z,70.25
2019-01-31T10:31:55.590Z,70.33
2019-01-31T10:35:39.022Z,69.95
2019-01-31T10:39:12.838Z,70.28
2019-01-31T10:42:08.348Z,70.20
2019-01-31T10:45:08.289Z,70.14
2019-01-31T10:48:30.751Z,70.05
2019-01-31T10:51:44.720Z,69.88
2019-01-31T10:54:40.553Z,70.06
2019-01-31T10:58:12.564Z,69.46
2019-01-31T11:01:55.198Z,69.40
2019-01-31T11:05:08.687Z,69.31
2019-01-31T11:08:17.320Z,69.68
2019-01-31T11:11:09.993Z,69.92
2019-01-31T11:14:18.032Z,69.90
2019-01-31T11:17:43.633Z,69.59
2019-01-31T11:21:16.138Z,69.66
2019-01-31T11:24:15.235Z,69.28
2019-01-31T11:27:51.086Z,69.15
2019-01-31T11:30:41.759Z,68.96
2019-01-31T11:33:29.975Z,69.31
2019-01-31T11:36:58.323Z,70.05
2019-01-31T11:40:29.458Z,70.18
2019-01-31T11:43:33.793Z,69.93
2019-01-31T11:46:49.595Z,70.27
2019-01-31T11:50:05.435Z,70.78
2019-01-31T11:53:13.888Z,70.66
2019-01-31T11:56:41.669Z,70.72
2019-01-31T11:59:13.336Z,70.60
2019-01-31T12:01:44.850Z,70.78
2019-01-31T12:04:20.031Z,71.12
2019-01-31T12:06:51.500Z,71.03
2019-01-31T12:09:23.651Z,71.20
2019-01-31T12:11:55.349Z,71.09
2019-01-31T12:14:27.109Z,71.04
2019-01-31T12:16:58.546Z,70.79
2019-01-31T12:19:30.333Z,70.81
2019-01-31T12:22:05.736Z,70.49
2019-01-31T12:24:37.290Z,70.51
2019-01-31T12:27:08.746Z,70.63
2019-01-31T12:29:40.414Z,71.24
2019-01-31T12:32:12.049Z,70.72
2019-01-31T12:34:43.734Z,70.76
2019-01-31T12:37:16.303Z,70.82
2019-01-31T12:39:47.815Z,70.74
2019-01-31T12:42:19.276Z,70.45
2019-01-31T12:44:51.006Z,70.64
2019-01-31T12:47:22.466Z,70.52
2019-01-31T12:49:53.972Z,70.75
2019-01-31T12:52:25.450Z,70.68
2019-01-31T12:54:57.014Z,70.69
2019-01-31T12:57:28.468Z,70.67
2019-01-31T13:00:00.248Z,70.57
2019-01-31T13:02:31.954Z,71.01
2019-01-31T13:05:03.457Z,70.71
2019-01-31T13:07:34.954Z,70.84
2019-01-31T13:10:06.949Z,70.80
2019-01-31T13:12:48.323Z,71.07
2019-01-31T13:15:12.023Z,70.90
2019-01-31T13:17:43.535Z,70.80
2019-01-31T13:20:23.934Z,70.70
2019-01-31T13:22:57.820Z,70.74
2019-01-31T13:25:29.900Z,70.74
2019-01-31T13:28:01.359Z,70.86
2019-01-31T13:30:33.288Z,70.85
2019-01-31T13:33:04.776Z,70.81
2019-01-31T13:35:36.295Z,70.83
2019-01-31T13:38:07.882Z,71.04
2019-01-31T13:40:40.437Z,71.08
2019-01-31T13:43:11.912Z,71.29
2019-01-31T13:45:43.692Z,71.38
2019-01-31T13:48:17.054Z,71.18
2019-01-31T13:50:48.552Z,71.40
2019-01-31T13:53:20.054Z,71.43
2019-01-31T13:55:51.481Z,71.48
2019-01-31T13:58:22.961Z,71.37
2019-01-31T14:00:54.692Z,71.47
2019-01-31T14:03:26.322Z,71.52
2019-01-31T14:05:57.754Z,71.53
2019-01-31T14:08:29.284Z,71.29
2019-01-31T14:11:00.734Z,71.26
2019-01-31T14:13:32.382Z,71.52
2019-01-31T14:16:03.966Z,71.70
2019-01-31T14:18:35.678Z,71.74
2019-01-31T14:21:07.206Z,71.67
2019-01-31T14:23:38.644Z,71.49
2019-01-31T14:26:10.140Z,71.77
2019-01-31T14:28:41.586Z,71.92
2019-01-31T14:31:13.353Z,72.10
2019-01-31T14:33:45.678Z,71.88
2019-01-31T14:36:17.221Z,71.88
2019-01-31T14:38:48.733Z,71.87
2019-01-31T14:41:20.216Z,71.93
2019-01-31T14:43:51.702Z,72.01
2019-01-31T14:46:23.482Z,71.90
2019-01-31T14:48:54.940Z,71.98
2019-01-31T14:51:26.453Z,71.93
2019-01-31T14:53:57.883Z,72.01
2019-01-31T14:56:29.407Z,72.07
2019-01-31T14:59:00.869Z,72.16
2019-01-31T15:01:32.746Z,72.11
2019-01-31T15:04:04.216Z,72.10
2019-01-31T15:06:35.688Z,72.12
2019-01-31T15:09:09.631Z,71.82
2019-01-31T15:11:41.534Z,71.98
2019-01-31T15:14:13.077Z,72.00
2019-01-31T15:16:44.911Z,72.21
2019-01-31T15:19:16.372Z,72.20
2019-01-31T15:21:50.420Z,72.08
2019-01-31T15:24:21.965Z,71.94
2019-01-31T15:26:53.825Z,71.93
2019-01-31T15:29:26.657Z,72.30
2019-01-31T15:31:58.452Z,72.38
2019-01-31T15:34:29.887Z,72.48
2019-01-31T15:37:02.184Z,72.38
2019-01-31T15:39:33.981Z,72.32
2019-01-31T15:42:05.468Z,72.43
2019-01-31T15:44:43.325Z,72.47
2019-01-31T15:47:10.604Z,72.54
2019-01-31T15:49:44.895Z,72.41
2019-01-31T15:52:16.411Z,72.35
2019-01-31T15:54:50.320Z,72.37
2019-01-31T15:57:21.780Z,72.36
2019-01-31T15:59:53.298Z,72.30
2019-01-31T16:02:25.135Z,72.19
2019-01-31T16:04:56.793Z,72.17
2019-01-31T16:07:30.907Z,72.23
2019-01-31T16:10:03.741Z,72.20
2019-01-31T16:12:35.364Z,72.20
2019-01-31T16:15:10.819Z,72.08
2019-01-31T16:17:42.459Z,72.08
2019-01-31T16:20:14.417Z,72.11
2019-01-31T16:22:46.140Z,72.05
2019-01-31T16:25:17.673Z,72.10
2019-01-31T16:27:49.198Z,72.02
2019-01-31T16:30:21.240Z,71.92
2019-01-31T16:32:53.167Z,71.83
2019-01-31T16:35:24.682Z,71.95
2019-01-31T16:37:56.259Z,71.87
2019-01-31T16:40:28.019Z,71.75
2019-01-31T16:42:59.526Z,71.77
2019-01-31T16:45:34.112Z,71.87
2019-01-31T16:48:06.898Z,71.82
2019-01-31T16:50:38.596Z,71.78
2019-01-31T16:53:10.891Z,71.86
2019-01-31T16:55:42.403Z,71.82
2019-01-31T16:58:14.070Z,71.76
2019-01-31T17:00:45.578Z,71.67
2019-01-31T17:03:17.330Z,71.65
2019-01-31T17:05:48.792Z,71.76
2019-01-31T17:08:20.378Z,71.83
2019-01-31T17:10:51.922Z,71.81
2019-01-31T17:13:23.399Z,71.77
2019-01-31T17:15:55.045Z,71.74
2019-01-31T17:18:26.708Z,71.65
2019-01-31T17:20:58.324Z,71.73
2019-01-31T17:23:29.810Z,71.78
2019-01-31T17:26:01.462Z,71.80
2019-01-31T17:28:33.008Z,71.69
2019-01-31T17:31:04.548Z,71.54
2019-01-31T17:33:36.038Z,71.72
2019-01-31T17:36:07.568Z,71.69
2019-01-31T17:38:39.052Z,71.71
2019-01-31T17:41:10.549Z,71.90
2019-01-31T17:43:42.059Z,71.75
2019-01-31T17:46:13.682Z,71.13
2019-01-31T17:48:45.417Z,70.73
2019-01-31T17:51:18.681Z,70.49
2019-01-31T17:53:50.353Z,70.38
2019-01-31T17:56:21.827Z,70.36
2019-01-31T17:58:53.572Z,70.29
2019-01-31T18:01:25.235Z,70.25
2019-01-31T18:03:57.141Z,70.38
2019-01-31T18:06:28.806Z,70.28
2019-01-31T18:09:00.304Z,70.44
2019-01-31T18:11:32.420Z,70.39
2019-01-31T18:14:04.050Z,70.47
2019-01-31T18:16:35.653Z,70.56
2019-01-31T18:19:07.651Z,70.38
2019-01-31T18:21:39.382Z,70.40
2019-01-31T18:24:10.908Z,70.51
2019-01-31T18:26:42.772Z,70.44
2019-01-31T18:29:14.460Z,70.42
2019-01-31T18:31:46.046Z,70.40
2019-01-31T18:34:17.916Z,70.43
2019-01-31T18:36:49.686Z,70.66
2019-01-31T18:39:22.462Z,70.84
2019-01-31T18:41:54.082Z,70.83
2019-01-31T18:44:25.658Z,70.96
2019-01-31T18:46:57.328Z,70.97
2019-01-31T18:49:29.384Z,71.02
2019-01-31T18:52:01.242Z,71.26
2019-01-31T18:54:32.916Z,71.23
2019-01-31T18:57:05.818Z,71.29
2019-01-31T18:59:37.349Z,71.31
2019-01-31T19:02:08.960Z,71.23
2019-01-31T19:04:41.188Z,71.23
2019-01-31T19:07:13.867Z,71.19
2019-01-31T19:09:45.395Z,71.26
2019-01-31T19:12:16.915Z,71.11
2019-01-31T19:14:48.528Z,71.16
2019-01-31T19:17:20.148Z,71.28
2019-01-31T19:19:51.873Z,71.37
2019-01-31T19:22:23.470Z,71.23
2019-01-31T19:24:55.238Z,71.28
2019-01-31T19:27:27.056Z,71.25
2019-01-31T19:29:58.711Z,71.29
2019-01-31T19:32:30.424Z,71.19
2019-01-31T19:35:02.384Z,71.09
2019-01-31T19:37:35.323Z,71.20
2019-01-31T19:40:07.958Z,71.27
2019-01-31T19:42:39.618Z,71.32
2019-01-31T19:45:18.883Z,71.36
2019-01-31T19:47:50.593Z,71.34
2019-01-31T19:50:22.343Z,71.30
2019-01-31T19:52:54.135Z,71.09
2019-01-31T19:55:27.433Z,71.13
2019-01-31T19:57:59.075Z,71.09
2019-01-31T20:00:30.629Z,71.13
2019-01-31T20:03:02.231Z,71.09
2019-01-31T20:05:34.430Z,71.05
2019-01-31T20:08:08.005Z,71.18
2019-01-31T20:10:42.498Z,71.14
2019-01-31T20:13:15.509Z,71.24
2019-01-31T20:15:47.039Z,70.88
2019-01-31T20:18:18.847Z,71.00
2019-01-31T20:20:50.907Z,71.06
2019-01-31T20:23:22.695Z,71.03
2019-01-31T20:25:54.230Z,70.93
2019-01-31T20:28:25.973Z,70.71
2019-01-31T20:30:57.560Z,70.71
2019-01-31T20:33:29.156Z,70.89
2019-01-31T20:36:00.977Z,71.03
2019-01-31T20:38:32.572Z,71.08
2019-01-31T20:41:04.158Z,71.85
2019-01-31T20:43:36.139Z,71.89
2019-01-31T20:46:07.714Z,71.64
2019-01-31T20:48:39.312Z,71.47
2019-01-31T20:51:12.726Z,71.41
2019-01-31T20:53:44.662Z,71.34
2019-01-31T20:56:16.208Z,71.37
2019-01-31T20:58:47.848Z,71.64
2019-01-31T21:01:19.414Z,71.71
2019-01-31T21:03:51.278Z,71.54
2019-01-31T21:06:23.693Z,71.46
2019-01-31T21:08:55.297Z,72.16
2019-01-31T21:11:26.830Z,72.21
2019-01-31T21:13:58.425Z,71.86
2019-01-31T21:16:29.992Z,71.41
2019-01-31T21:19:01.590Z,71.00
2019-01-31T21:21:33.415Z,70.90
2019-01-31T21:24:05.103Z,70.83
2019-01-31T21:26:36.656Z,70.79
2019-01-31T21:29:08.209Z,70.84
2019-01-31T21:31:39.807Z,71.01
2019-01-31T21:34:11.310Z,70.88
2019-01-31T21:36:43.095Z,70.60
2019-01-31T21:39:17.236Z,70.67
2019-01-31T21:41:49.975Z,70.61
2019-01-31T21:44:21.588Z,70.44
2019-01-31T21:47:02.762Z,70.19
2019-01-31T21:49:26.388Z,69.71
2019-01-31T21:51:57.940Z,69.57
2019-01-31T21:54:29.492Z,69.70
2019-01-31T21:57:00.936Z,69.82
2019-01-31T21:59:32.443Z,69.91
2019-01-31T22:02:03.885Z,69.99
2019-01-31T22:04:35.345Z,69.95
2019-01-31T22:07:07.063Z,69.71
2019-01-31T22:09:38.603Z,69.68
2019-01-31T22:12:10.072Z,69.81
2019-01-31T22:14:41.547Z,69.74
2019-01-31T22:17:14.710Z,69.72
2019-01-31T22:19:46.347Z,69.59
2019-01-31T22:22:17.803Z,69.61
2019-01-31T22:24:49.299Z,69.62
2019-01-31T22:27:20.803Z,69.37
2019-01-31T22:29:52.345Z,69.20
2019-01-31T22:32:23.802Z,69.29
2019-01-31T22:34:55.337Z,69.13
2019-01-31T22:37:27.184Z,68.93
2019-01-31T22:39:58.702Z,69.11
2019-01-31T22:42:30.164Z,69.22
2019-01-31T22:45:01.729Z,69.28
2019-01-31T22:47:34.078Z,69.41
2019-01-31T22:50:07.120Z,70.00
2019-01-31T22:52:38.838Z,69.76
2019-01-31T22:55:11.946Z,69.75
2019-01-31T22:57:43.762Z,69.80
2019-01-31T23:01:09.091Z,69.70
2019-01-31T23:03:41.287Z,69.66
2019-01-31T23:06:15.658Z,69.54
2019-01-31T23:08:47.178Z,69.50
2019-01-31T23:11:18.828Z,69.50
2019-01-31T23:13:50.391Z,69.64
2019-01-31T23:16:22.124Z,69.59
2019-01-31T23:18:53.644Z,69.66
2019-01-31T23:21:25.382Z,69.75
2019-01-31T23:23:56.896Z,69.76
2019-01-31T23:26:28.439Z,69.68
2019-01-31T23:28:59.998Z,69.62
2019-01-31T23:31:31.534Z,69.69
2019-01-31T23:34:03.197Z,69.71
2019-01-31T23:36:34.707Z,69.54
2019-01-31T23:39:11.010Z,69.59
2019-01-31T23:41:42.698Z,69.58
2019-01-31T23:44:14.132Z,69.46
2019-01-31T23:46:45.598Z,69.30
2019-01-31T23:49:17.041Z,69.21
2019-01-31T23:51:48.488Z,69.25
2019-01-31T23:54:20.153Z,69.27
2019-01-31T23:56:51.625Z,69.15
2019-01-31T23:59:23.154Z,69.31
